Fork, Maryland
Current Conditions -  °F | °C
As of 3:24 AM on Tuesday 27 Jan 2015 (Local Time) from KMTN Reporting Station
Overcast Overcast  
Wind Chill: 21°   Ceiling: 2800
Heat Index: 30°   Visibility: 10mi
Dew Point: 25°   Wind: 12mph
Humidity: 80%   Direction: 310°NW
Pressure: 29.74"   Gusts: 18mph
Location:  39.47°N, 76.44°W
Report Text: KMTN 270824Z AUTO 31010G16KT 10SM OVC028 M01/M04 A2974 RMK AO2
Loading
Personal Weather Stations






























Interactive Weather Map New forecast layout! Learn more

10-Day Weather Forecast

Advertisements
Track Severe Weather on mobile